createdAt,value
2018-04-27T00:01:54.519Z,10.32
2018-04-27T00:04:22.147Z,10.30
2018-04-27T00:06:49.788Z,10.28
2018-04-27T00:18:26.556Z,10.28
2018-04-27T00:20:54.074Z,10.28
2018-04-27T00:23:21.635Z,10.29
2018-04-27T00:34:56.428Z,10.23
2018-04-27T00:37:24.962Z,10.22
2018-04-27T00:39:52.534Z,10.22
2018-04-27T00:51:01.810Z,10.16
2018-04-27T00:53:29.387Z,10.16
2018-04-27T00:55:56.922Z,10.15
2018-04-27T00:58:24.539Z,10.13
2018-04-27T01:01:03.808Z,10.13
2018-04-27T01:06:15.166Z,10.10
2018-04-27T01:08:42.799Z,10.08
2018-04-27T01:11:10.357Z,10.07
2018-04-27T01:13:37.913Z,10.05
2018-04-27T01:16:05.656Z,10.04
2018-04-27T01:18:34.189Z,10.04
2018-04-27T01:21:04.195Z,10.03
2018-04-27T01:23:31.757Z,10.03
2018-04-27T01:25:59.254Z,10.02
2018-04-27T01:28:27.425Z,10.02
2018-04-27T01:30:55.001Z,10.01
2018-04-27T01:33:22.681Z,10.01
2018-04-27T01:35:55.180Z,10.03
2018-04-27T01:38:23.844Z,10.01
2018-04-27T01:40:54.428Z,10.01
2018-04-27T01:43:21.998Z,10.02
2018-04-27T01:45:49.532Z,10.00
2018-04-27T01:48:17.161Z,10.00
2018-04-27T01:50:44.762Z,10.00
2018-04-27T01:53:14.966Z,10.00
2018-04-27T01:55:46.354Z,9.99
2018-04-27T01:58:15.194Z,9.99
2018-04-27T02:00:42.743Z,10.00
2018-04-27T02:03:10.263Z,9.99
2018-04-27T02:05:38.053Z,9.99
2018-04-27T02:08:06.587Z,9.99
2018-04-27T02:10:39.027Z,9.97
2018-04-27T02:13:10.403Z,9.96
2018-04-27T02:18:30.592Z,9.92
2018-04-27T02:20:58.145Z,9.89
2018-04-27T02:23:25.741Z,9.89
2018-04-27T02:34:42.766Z,9.81
2018-04-27T02:37:10.351Z,9.79
2018-04-27T02:39:38.060Z,9.78
2018-04-27T02:51:12.436Z,9.69
2018-04-27T02:53:40.028Z,9.66
2018-04-27T02:56:07.557Z,9.64
2018-04-27T02:58:37.116Z,9.62
2018-04-27T03:09:41.961Z,9.55
2018-04-27T03:12:09.525Z,9.53
2018-04-27T03:14:37.133Z,9.52
2018-04-27T03:26:13.761Z,9.48
2018-04-27T03:28:41.418Z,9.46
2018-04-27T03:31:09.086Z,9.44
2018-04-27T03:42:45.583Z,9.41
2018-04-27T03:45:13.141Z,9.40
2018-04-27T03:47:40.711Z,9.40
2018-04-27T03:59:28.573Z,9.39
2018-04-27T04:02:07.905Z,9.37
2018-04-27T04:04:47.559Z,9.34
2018-04-27T04:07:28.844Z,9.33
2018-04-27T04:19:01.515Z,9.29
2018-04-27T04:21:29.093Z,9.28
2018-04-27T04:23:56.669Z,9.26
2018-04-27T04:35:33.495Z,9.20
2018-04-27T04:38:01.081Z,9.18
2018-04-27T04:40:28.699Z,9.17
2018-04-27T04:52:05.142Z,9.08
2018-04-27T04:54:32.709Z,9.07
2018-04-27T04:57:01.312Z,9.06
2018-04-27T05:08:37.847Z,8.94
2018-04-27T05:11:05.463Z,8.93
2018-04-27T05:13:33.069Z,8.92
2018-04-27T05:25:09.153Z,8.89
2018-04-27T05:27:36.865Z,8.89
2018-04-27T05:30:04.496Z,8.88
2018-04-27T05:41:56.406Z,8.82
2018-04-27T05:44:24.011Z,8.79
2018-04-27T05:46:51.605Z,8.78
2018-04-27T05:49:19.307Z,8.76
2018-04-27T06:00:56.390Z,8.71
2018-04-27T06:03:24.095Z,8.70
2018-04-27T06:05:51.695Z,8.68
2018-04-27T06:17:28.183Z,8.66
2018-04-27T06:19:55.724Z,8.66
2018-04-27T06:22:23.393Z,8.65
2018-04-27T06:33:59.827Z,8.65
2018-04-27T06:36:31.489Z,8.65
2018-04-27T06:38:59.110Z,8.65
2018-04-27T06:50:35.243Z,8.60
2018-04-27T06:53:02.823Z,8.59
2018-04-27T06:55:30.456Z,8.59
2018-04-27T07:00:58.965Z,8.62
2018-04-27T07:09:33.080Z,8.62
2018-04-27T07:12:00.786Z,8.61
2018-04-27T07:14:28.405Z,8.61
2018-04-27T07:26:05.547Z,8.61
2018-04-27T07:28:33.095Z,8.61
2018-04-27T07:31:00.667Z,8.60
2018-04-27T07:42:36.571Z,8.56
2018-04-27T07:45:04.254Z,8.55
2018-04-27T07:47:31.827Z,8.56
2018-04-27T07:59:07.721Z,8.58
2018-04-27T08:01:35.309Z,8.59
2018-04-27T08:04:02.940Z,8.61
2018-04-27T08:15:36.741Z,8.65
2018-04-27T08:18:04.350Z,8.65
2018-04-27T08:20:31.923Z,8.67
2018-04-27T08:23:00.367Z,8.68
2018-04-27T08:28:21.052Z,8.73
2018-04-27T08:33:39.147Z,8.79
2018-04-27T08:36:06.771Z,8.80
2018-04-27T08:38:34.373Z,8.83
2018-04-27T08:50:08.647Z,8.92
2018-04-27T08:52:36.259Z,8.94
2018-04-27T08:55:03.953Z,8.95
2018-04-27T08:57:31.604Z,8.95
2018-04-27T09:09:34.947Z,9.02
2018-04-27T09:12:02.619Z,9.07
2018-04-27T09:14:30.258Z,9.10
2018-04-27T09:17:03.939Z,9.13
2018-04-27T09:22:36.155Z,9.13
2018-04-27T09:25:03.880Z,9.13
2018-04-27T09:27:31.503Z,9.14
2018-04-27T09:29:59.107Z,9.14
2018-04-27T09:32:28.497Z,9.16
2018-04-27T09:41:24.323Z,9.36
2018-04-27T09:43:51.899Z,9.40
2018-04-27T09:46:19.521Z,9.43
2018-04-27T09:48:47.341Z,9.45
2018-04-27T09:57:27.794Z,9.51
2018-04-27T09:59:55.505Z,9.56
2018-04-27T10:04:55.705Z,9.67
2018-04-27T10:07:31.477Z,9.73
2018-04-27T10:10:02.758Z,9.77
2018-04-27T10:15:37.028Z,9.75
2018-04-27T10:18:04.579Z,9.75
2018-04-27T10:20:32.260Z,9.76
2018-04-27T10:22:59.832Z,9.77
2018-04-27T10:34:51.931Z,9.79
2018-04-27T10:37:19.623Z,9.79
2018-04-27T10:39:47.314Z,9.75
2018-04-27T10:42:24.129Z,9.72
2018-04-27T10:44:54.546Z,9.67
2018-04-27T10:47:24.650Z,9.65
2018-04-27T10:49:53.325Z,9.62
2018-04-27T10:52:20.924Z,9.59
2018-04-27T10:54:48.493Z,9.56
2018-04-27T10:57:16.079Z,9.55
2018-04-27T10:59:47.273Z,9.55
2018-04-27T11:05:00.402Z,9.59
2018-04-27T11:07:28.114Z,9.64
2018-04-27T11:09:55.697Z,9.70
2018-04-27T11:12:23.358Z,9.77
2018-04-27T11:14:50.919Z,9.88
2018-04-27T11:26:27.676Z,10.68
2018-04-27T11:28:55.226Z,10.87
2018-04-27T11:31:22.909Z,11.04
2018-04-27T11:43:08.925Z,11.77
2018-04-27T11:45:36.497Z,11.88
2018-04-27T11:48:04.062Z,12.01
2018-04-27T11:59:35.607Z,12.60
2018-04-27T12:02:03.187Z,12.84
2018-04-27T12:04:30.910Z,13.16
2018-04-27T12:16:07.052Z,13.72
2018-04-27T12:18:34.614Z,13.76
2018-04-27T12:21:03.059Z,13.76
2018-04-27T12:23:32.418Z,13.76
2018-04-27T12:35:02.173Z,13.79
2018-04-27T12:37:29.736Z,13.87
2018-04-27T12:39:58.247Z,13.97
2018-04-27T12:50:17.712Z,14.17
2018-04-27T12:52:45.431Z,14.22
2018-04-27T12:55:13.123Z,14.24
2018-04-27T12:57:40.855Z,14.25
2018-04-27T13:00:14.623Z,14.30
2018-04-27T13:02:46.425Z,14.32
2018-04-27T13:07:53.376Z,14.10
2018-04-27T13:10:20.931Z,13.98
2018-04-27T13:12:48.543Z,13.86
2018-04-27T13:15:16.223Z,13.77
2018-04-27T13:17:48.059Z,13.67
2018-04-27T13:20:16.527Z,13.53
2018-04-27T13:22:44.616Z,13.42
2018-04-27T13:25:12.231Z,13.33
2018-04-27T13:27:41.787Z,13.26
2018-04-27T13:30:09.402Z,13.19
2018-04-27T13:32:36.969Z,13.10
2018-04-27T13:35:04.659Z,13.01
2018-04-27T13:40:26.689Z,12.88
2018-04-27T13:42:54.279Z,12.84
2018-04-27T13:45:21.781Z,12.81
2018-04-27T13:47:49.371Z,12.74
2018-04-27T13:50:16.936Z,12.71
2018-04-27T14:03:49.509Z,12.49
2018-04-27T14:06:17.168Z,12.44
2018-04-27T14:16:58.991Z,12.09
2018-04-27T14:19:26.628Z,12.04
2018-04-27T14:21:54.283Z,11.98
2018-04-27T14:24:22.236Z,11.91
2018-04-27T14:32:25.032Z,11.79
2018-04-27T14:34:52.660Z,11.78
2018-04-27T14:37:20.351Z,11.77
2018-04-27T14:39:48.015Z,11.76
2018-04-27T14:42:16.279Z,11.78
2018-04-27T14:44:45.225Z,11.83
2018-04-27T14:49:50.816Z,12.00
2018-04-27T14:52:18.476Z,12.08
2018-04-27T14:54:46.075Z,12.15
2018-04-27T14:57:13.689Z,12.24
2018-04-27T14:59:43.591Z,12.30
2018-04-27T15:02:14.843Z,12.34
2018-04-27T15:04:46.612Z,12.33
2018-04-27T15:07:16.351Z,12.31
2018-04-27T15:09:43.928Z,12.29
2018-04-27T15:12:11.560Z,12.30
2018-04-27T15:14:39.128Z,12.37
2018-04-27T15:17:08.741Z,12.43
2018-04-27T15:19:43.731Z,12.48
2018-04-27T15:22:12.274Z,12.54
2018-04-27T15:24:39.848Z,12.59
2018-04-27T15:27:07.387Z,12.60
2018-04-27T15:29:34.943Z,12.56
2018-04-27T15:32:02.554Z,12.53
2018-04-27T15:34:31.129Z,12.49
2018-04-27T15:37:00.906Z,12.46
2018-04-27T15:39:28.787Z,12.45
2018-04-27T15:42:00.740Z,12.45
2018-04-27T15:44:28.350Z,12.44
2018-04-27T15:46:55.963Z,12.42
2018-04-27T15:49:23.615Z,12.41
2018-04-27T15:51:52.274Z,12.36
2018-04-27T15:54:20.285Z,12.31
2018-04-27T15:56:52.744Z,12.29
2018-04-27T15:59:22.032Z,12.28
2018-04-27T16:01:49.659Z,12.23
2018-04-27T16:04:17.221Z,12.16
2018-04-27T16:06:44.964Z,12.08
2018-04-27T16:09:14.731Z,12.00
2018-04-27T16:11:43.633Z,11.92
2018-04-27T16:14:12.165Z,11.86
2018-04-27T16:16:39.695Z,11.80
2018-04-27T16:19:07.327Z,11.73
2018-04-27T16:21:34.938Z,11.65
2018-04-27T16:24:02.593Z,11.58
2018-04-27T16:26:35.237Z,11.52
2018-04-27T16:29:03.779Z,11.47
2018-04-27T16:31:32.398Z,11.42
2018-04-27T16:34:00.803Z,11.38
2018-04-27T16:36:28.377Z,11.38
2018-04-27T16:38:55.918Z,11.37
2018-04-27T16:41:23.458Z,11.36
2018-04-27T16:43:51.291Z,11.39
2018-04-27T16:46:28.190Z,11.39
2018-04-27T16:49:04.338Z,11.40
2018-04-27T16:51:31.983Z,11.42
2018-04-27T16:53:59.611Z,11.42
2018-04-27T16:56:27.146Z,11.40
2018-04-27T16:58:54.755Z,11.37
2018-04-27T17:01:28.793Z,11.38
2018-04-27T17:09:10.725Z,11.33
2018-04-27T17:11:38.273Z,11.31
2018-04-27T17:14:05.851Z,11.32
2018-04-27T17:16:33.576Z,11.31
2018-04-27T17:19:02.970Z,11.30
2018-04-27T17:21:31.611Z,11.29
2018-04-27T17:24:00.306Z,11.26
2018-04-27T17:26:27.893Z,11.24
2018-04-27T17:28:55.385Z,11.22
2018-04-27T17:31:23.092Z,11.21
2018-04-27T17:42:36.515Z,11.21
2018-04-27T17:45:04.885Z,11.22
2018-04-27T17:47:32.552Z,11.24
2018-04-27T17:50:00.223Z,11.25
2018-04-27T18:00:52.269Z,11.29
2018-04-27T18:03:19.901Z,11.34
2018-04-27T18:05:47.461Z,11.38
2018-04-27T18:08:19.609Z,11.41
2018-04-27T18:10:50.859Z,11.44
2018-04-27T18:13:20.050Z,11.46
2018-04-27T18:19:23.707Z,11.46
2018-04-27T18:21:51.360Z,11.44
2018-04-27T18:24:21.340Z,11.43
2018-04-27T18:29:28.146Z,11.40
2018-04-27T18:32:06.601Z,11.37
2018-04-27T18:34:34.267Z,11.34
2018-04-27T18:37:01.827Z,11.30
2018-04-27T18:39:29.413Z,11.27
2018-04-27T18:41:58.091Z,11.24
2018-04-27T18:52:55.322Z,11.11
2018-04-27T18:55:22.963Z,11.08
2018-04-27T18:57:50.560Z,11.05
2018-04-27T19:03:16.330Z,10.97
2018-04-27T19:05:44.812Z,10.95
2018-04-27T19:08:12.420Z,10.94
2018-04-27T19:10:40.004Z,10.93
2018-04-27T19:13:07.671Z,10.91
2018-04-27T19:15:36.378Z,10.88
2018-04-27T19:20:59.611Z,10.83
2018-04-27T19:23:31.779Z,10.81
2018-04-27T19:25:59.376Z,10.79
2018-04-27T19:28:31.023Z,10.78
2018-04-27T19:30:59.424Z,10.75
2018-04-27T19:33:27.019Z,10.73
2018-04-27T19:35:57.102Z,10.71
2018-04-27T19:38:27.891Z,10.68
2018-04-27T19:40:56.443Z,10.65
2018-04-27T19:43:24.992Z,10.64
2018-04-27T19:45:52.745Z,10.63
2018-04-27T19:48:20.387Z,10.61
2018-04-27T19:50:48.181Z,10.59
2018-04-27T19:53:19.783Z,10.58
2018-04-27T19:55:50.709Z,10.57
2018-04-27T19:58:23.873Z,10.56
2018-04-27T20:00:51.492Z,10.55
2018-04-27T20:03:19.759Z,10.55
2018-04-27T20:05:48.081Z,10.54
2018-04-27T20:08:16.016Z,10.53
2018-04-27T20:10:46.672Z,10.52
2018-04-27T20:15:59.749Z,10.49
2018-04-27T20:18:28.250Z,10.49
2018-04-27T20:20:55.804Z,10.48
2018-04-27T20:23:23.400Z,10.46
2018-04-27T20:25:59.832Z,10.45
2018-04-27T20:28:31.677Z,10.42
2018-04-27T20:31:00.444Z,10.40
2018-04-27T20:33:32.744Z,10.39
2018-04-27T20:36:01.085Z,10.38
2018-04-27T20:38:30.554Z,10.36
2018-04-27T20:40:58.140Z,10.35
2018-04-27T20:43:27.377Z,10.33
2018-04-27T20:45:56.730Z,10.33
2018-04-27T20:48:26.952Z,10.32
2018-04-27T20:53:51.548Z,10.29
2018-04-27T20:56:20.550Z,10.28
2018-04-27T20:58:48.111Z,10.28
2018-04-27T21:01:15.779Z,10.26
2018-04-27T21:03:45.397Z,10.25
2018-04-27T21:06:14.896Z,10.24
2018-04-27T21:08:42.432Z,10.24
2018-04-27T21:11:10.023Z,10.23
2018-04-27T21:13:37.578Z,10.22
2018-04-27T21:16:06.135Z,10.22
2018-04-27T21:18:35.463Z,10.22
2018-04-27T21:21:07.809Z,10.21
2018-04-27T21:23:36.603Z,10.19
2018-04-27T21:26:04.180Z,10.18
2018-04-27T21:28:33.439Z,10.17
2018-04-27T21:31:00.988Z,10.18
2018-04-27T21:33:38.165Z,10.17
2018-04-27T21:36:07.034Z,10.16
2018-04-27T21:38:56.695Z,10.15
2018-04-27T21:47:24.351Z,10.12
2018-04-27T21:49:52.008Z,10.10
2018-04-27T21:55:08.103Z,10.09
2018-04-27T21:57:48.870Z,10.09
2018-04-27T22:00:16.592Z,10.08
2018-04-27T22:02:50.052Z,10.08
2018-04-27T22:08:33.332Z,10.06
2018-04-27T22:11:02.779Z,10.05
2018-04-27T22:13:35.466Z,10.05
2018-04-27T22:16:07.013Z,10.04
2018-04-27T22:18:34.602Z,10.04
2018-04-27T22:21:02.152Z,10.03
2018-04-27T22:23:30.358Z,10.02
2018-04-27T22:25:58.851Z,10.01
2018-04-27T22:28:35.354Z,10.00
2018-04-27T22:31:08.129Z,9.99
2018-04-27T22:39:17.527Z,9.95
2018-04-27T22:45:03.205Z,9.93
2018-04-27T22:50:34.667Z,9.91
2018-04-27T22:53:02.242Z,9.89
2018-04-27T22:55:30.487Z,9.87
2018-04-27T22:58:08.852Z,9.84
2018-04-27T23:09:14.329Z,9.78
2018-04-27T23:11:41.907Z,9.75
2018-04-27T23:14:16.271Z,9.74
2018-04-27T23:16:45.607Z,9.72
2018-04-27T23:28:21.623Z,9.65
2018-04-27T23:30:49.147Z,9.63
2018-04-27T23:33:16.819Z,9.62
2018-04-27T23:44:52.890Z,9.55
2018-04-27T23:47:20.470Z,9.54
2018-04-27T23:49:48.042Z,9.53
